Time;durP1;ratioP1;P1;durP2;ratioP2;P2;SDS_P1;SDS_P2;PMS_P1;PMS_P2;Temp;Humidity;BMP_temperature;BMP_pressure;BME280_temperature;BME280_humidity;BME280_pressure;Samples;Min_cycle;Max_cycle;Signal;HPM_P1;HPM_P2
2021/12/21 05:01:35;;;;;;;2.53;1.50;;;;;;;2.92;50.75;101264.31;5606204;31;76898;-58
2021/12/21 05:04:38;;;;;;;2.20;1.50;;;;;;;2.92;50.75;101264.31;5583851;31;33338;-58
2021/12/21 05:07:44;;;;;;;4.45;1.65;;;;;;;2.47;61.60;101267.63;5583732;31;33542;-58
2021/12/21 05:10:50;;;;;;;2.92;1.62;;;;;;;2.81;46.68;101276.34;5583311;31;34311;-58
2021/12/21 05:13:52;;;;;;;2.00;1.33;;;;;;;2.64;46.81;101265.38;5583383;31;33666;-58
2021/12/21 05:16:54;;;;;;;2.85;1.67;;;;;;;2.27;45.87;101262.34;5583780;32;34252;-58
2021/12/21 05:19:56;;;;;;;2.22;1.50;;;;;;;2.14;46.26;101272.09;5587678;31;34183;-58
2021/12/21 05:22:59;;;;;;;4.25;1.42;;;;;;;2.09;46.17;101273.53;5591846;31;34317;-58
2021/12/21 05:26:01;;;;;;;3.47;1.60;;;;;;;2.03;48.67;101284.91;5591956;31;34182;-58
2021/12/21 05:29:04;;;;;;;3.05;1.60;;;;;;;2.51;65.70;101294.50;5591465;31;34261;-58
2021/12/21 05:32:07;;;;;;;5.85;1.87;;;;;;;2.19;49.00;101291.66;5592308;31;32676;-58
2021/12/21 05:35:10;;;;;;;2.35;1.42;;;;;;;2.07;47.22;101293.25;5592889;31;33350;-58
2021/12/21 05:38:17;;;;;;;2.05;1.30;;;;;;;1.87;46.57;101301.97;5591151;31;33167;-58
2021/12/21 05:42:05;;;;;;;3.25;1.30;;;;;;;2.03;47.51;101300.78;5591579;31;33549;-58
2021/12/21 05:44:47;;;;;;;;;;;;;;;2.00;46.15;101306.47;5599302;31;33592;-58
2021/12/21 05:47:49;;;;;;;2.35;1.67;;;;;;;1.97;46.25;101314.00;5603344;31;33854;-58
2021/12/21 05:50:52;;;;;;;3.60;1.50;;;;;;;2.27;53.53;101315.25;5603250;31;33737;-58
2021/12/21 05:53:54;;;;;;;4.32;1.70;;;;;;;2.22;45.97;101308.94;5603013;31;33649;-58
2021/12/21 05:56:56;;;;;;;4.18;2.37;;;;;;;2.29;47.97;101310.59;5603120;31;33631;-58
2021/12/21 05:59:58;;;;;;;3.72;1.55;;;;;;;2.22;48.26;101315.06;5602953;31;33518;-58
2021/12/21 06:03:02;;;;;;;5.47;1.90;;;;;;;2.29;45.52;101321.16;5602974;31;33596;-58
2021/12/21 06:06:10;;;;;;;4.55;2.20;;;;;;;2.19;45.02;101328.69;5602195;31;34250;-58
2021/12/21 06:09:13;;;;;;;4.45;1.90;;;;;;;2.29;45.89;101323.81;5603045;31;33611;-58
2021/12/21 06:12:32;;;;;;;3.55;1.75;;;;;;;2.47;45.78;101330.34;5591384;31;33680;-58
2021/12/21 06:25:40;;;;;;;2.28;1.45;;;;;;;2.47;43.17;101359.44;5570001;32;33637;-58
2021/12/21 06:28:45;;;;;;;2.30;1.27;;;;;;;2.53;43.42;101356.81;5570018;32;33773;-58
2021/12/21 06:31:48;;;;;;;3.50;1.45;;;;;;;2.60;46.20;101364.75;5558683;32;34322;-58
2021/12/21 06:34:51;;;;;;;2.67;1.67;;;;;;;2.68;42.39;101369.88;5550027;32;33635;-58
2021/12/21 06:37:53;;;;;;;3.25;1.62;;;;;;;2.71;43.15;101372.06;5550310;32;33666;-58
2021/12/21 06:40:55;;;;;;;3.08;1.60;;;;;;;2.75;43.08;101365.37;5550457;32;33719;-58
2021/12/21 06:44:00;;;;;;;2.62;1.75;;;;;;;2.75;42.71;101375.97;5549386;32;33196;-58
2021/12/21 06:53:55;;;;;;;5.07;1.80;;;;;;;2.98;44.83;101385.31;5550524;32;33660;-58
2021/12/21 06:56:59;;;;;;;4.82;1.80;;;;;;;3.09;43.01;101389.19;5550377;32;33586;-58
2021/12/21 07:00:02;;;;;;;5.57;2.87;;;;;;;2.97;43.75;101386.34;5550178;32;34130;-58
2021/12/21 07:03:04;;;;;;;17.70;2.53;;;;;;;2.88;43.98;101384.91;5550137;32;33694;-58
2021/12/21 07:06:07;;;;;;;3.53;1.73;;;;;;;2.70;45.62;101383.69;5549894;32;34199;-58
2021/12/21 07:09:36;;;;;;;5.35;1.95;;;;;;;2.79;45.18;101390.41;5550256;32;33509;-58
2021/12/21 07:19:03;;;;;;;5.55;2.00;;;;;;;2.97;44.88;101402.22;5550020;32;34073;-58
2021/12/21 07:22:07;;;;;;;7.60;2.65;;;;;;;2.74;46.28;101399.97;5549333;32;33581;-58
2021/12/21 07:25:09;;;;;;;6.40;3.00;;;;;;;2.82;55.67;101407.75;5549091;32;33920;-58
2021/12/21 07:28:11;;;;;;;5.10;2.60;;;;;;;2.92;45.86;101404.69;5549786;32;34345;-58
2021/12/21 07:31:14;;;;;;;9.95;2.85;;;;;;;3.00;51.28;101404.47;5550242;32;34200;-58
2021/12/21 07:34:16;;;;;;;6.72;2.40;;;;;;;3.11;46.17;101403.03;5553084;32;33724;-58
2021/12/21 07:37:19;;;;;;;4.65;2.40;;;;;;;3.11;45.07;101398.53;5569297;32;33642;-58
2021/12/21 07:40:21;;;;;;;3.85;1.77;;;;;;;3.06;45.16;101395.72;5569463;32;33531;-58
2021/12/21 07:43:24;;;;;;;5.18;2.60;;;;;;;3.15;49.87;101407.72;5569127;32;33786;-58
2021/12/21 07:46:27;;;;;;;2.62;1.70;;;;;;;3.08;44.83;101417.53;5569259;32;33614;-58
2021/12/21 07:49:29;;;;;;;7.10;1.83;;;;;;;3.13;44.24;101414.25;5569490;32;34181;-58
2021/12/21 07:52:32;;;;;;;7.95;2.62;;;;;;;3.17;43.97;101413.63;5569352;32;34073;-58
2021/12/21 07:55:34;;;;;;;4.95;1.77;;;;;;;3.31;43.85;101411.75;5569544;32;33760;-58
2021/12/21 07:58:37;;;;;;;4.55;1.80;;;;;;;3.20;43.32;101409.75;5568248;32;33608;-58
2021/12/21 08:01:40;;;;;;;3.33;2.10;;;;;;;3.08;44.39;101412.22;5567829;32;34254;-58
2021/12/21 08:04:43;;;;;;;5.97;1.65;;;;;;;3.15;43.89;101409.56;5568954;32;34329;-58
2021/12/21 08:07:51;;;;;;;4.20;1.87;;;;;;;2.97;44.15;101408.34;5568455;32;33660;-58
2021/12/21 08:11:09;;;;;;;5.30;1.95;;;;;;;2.85;45.81;101406.50;5568886;32;34289;-58
2021/12/21 08:14:12;;;;;;;5.82;1.90;;;;;;;2.71;45.51;101410.97;5568797;32;33224;-58
2021/12/21 08:17:16;;;;;;;6.53;2.25;;;;;;;3.00;47.72;101417.72;5567875;32;33533;-58
2021/12/21 08:20:18;;;;;;;4.45;2.00;;;;;;;2.95;46.73;101421.00;5567783;32;33545;-58
2021/12/21 08:23:21;;;;;;;11.00;2.35;;;;;;;3.11;46.46;101417.09;5568811;32;34230;-58
2021/12/21 08:26:24;;;;;;;4.30;2.53;;;;;;;2.93;45.94;101425.66;5568655;32;33674;-58
2021/12/21 08:29:27;;;;;;;6.37;2.00;;;;;;;2.96;46.04;101427.91;5568285;32;33594;-58
2021/12/21 08:32:29;;;;;;;6.30;2.30;;;;;;;3.19;46.13;101426.69;5569057;32;33687;-58
2021/12/21 08:35:32;;;;;;;6.00;2.35;;;;;;;3.62;48.31;101427.00;5568593;32;33603;-58
2021/12/21 08:38:37;;;;;;;3.90;1.67;;;;;;;3.87;45.45;101427.13;5569274;32;33588;-58
2021/12/21 08:41:43;;;;;;;3.33;1.80;;;;;;;3.98;47.22;101423.00;5568747;32;33724;-58
2021/12/21 08:44:47;;;;;;;3.10;2.10;;;;;;;3.62;46.36;101423.53;5568896;32;33749;-58
2021/12/21 08:47:49;;;;;;;5.12;2.15;;;;;;;3.52;47.12;101430.09;5568670;32;33718;-58
2021/12/21 08:50:54;;;;;;;6.60;2.22;;;;;;;3.48;46.36;101431.53;5568831;32;33576;-58
2021/12/21 08:53:56;;;;;;;6.50;2.30;;;;;;;3.60;46.66;101430.88;5568204;32;33734;-58
2021/12/21 08:57:02;;;;;;;5.28;2.10;;;;;;;3.46;47.07;101430.09;5568563;32;33438;-58
2021/12/21 09:00:07;;;;;;;4.95;2.30;;;;;;;3.56;47.55;101434.97;5568354;32;33743;-58
2021/12/21 09:03:11;;;;;;;5.22;2.30;;;;;;;3.61;48.60;101436.00;5568841;32;33620;-58
2021/12/21 09:06:13;;;;;;;5.57;2.70;;;;;;;3.79;48.80;101442.47;5568173;32;34647;-58
2021/12/21 09:09:15;;;;;;;4.85;2.47;;;;;;;3.57;48.01;101445.34;5567862;32;33548;-58
2021/12/21 09:12:18;;;;;;;5.85;2.75;;;;;;;3.53;48.13;101449.47;5567874;32;34089;-58
2021/12/21 09:15:21;;;;;;;10.65;2.80;;;;;;;3.62;49.88;101452.72;5568222;31;33379;-58
2021/12/21 09:18:24;;;;;;;4.35;2.40;;;;;;;3.66;48.75;101452.06;5558927;32;33589;-58
2021/12/21 09:21:26;;;;;;;5.32;2.85;;;;;;;3.70;48.79;101445.31;5551064;32;33781;-58
2021/12/21 09:24:29;;;;;;;6.72;2.97;;;;;;;3.69;49.00;101446.34;5548613;32;33631;-58
2021/12/21 09:27:31;;;;;;;6.85;2.72;;;;;;;3.62;49.27;101456.19;5548102;32;33716;-58
2021/12/21 09:30:34;;;;;;;5.72;2.55;;;;;;;3.65;49.60;101447.81;5548721;32;33258;-58
2021/12/21 09:33:36;;;;;;;4.05;2.75;;;;;;;3.67;49.38;101442.28;5548158;32;33914;-58
2021/12/21 09:36:38;;;;;;;5.00;2.33;;;;;;;3.64;48.80;101435.56;5547657;32;34133;-58
2021/12/21 09:39:42;;;;;;;6.57;2.60;;;;;;;3.68;49.34;101436.78;5547334;32;33216;-58
2021/12/21 09:42:45;;;;;;;4.45;2.78;;;;;;;3.66;49.49;101441.47;5558884;32;34289;-58
2021/12/21 09:45:49;;;;;;;4.30;2.42;;;;;;;3.76;49.75;101441.84;5567523;32;33602;-58
2021/12/21 09:48:52;;;;;;;6.05;2.60;;;;;;;3.99;49.23;101437.91;5569773;32;33133;-58
2021/12/21 09:51:55;;;;;;;4.55;2.65;;;;;;;3.81;50.62;101437.75;5569348;32;34112;-58
2021/12/21 09:55:00;;;;;;;6.82;3.05;;;;;;;3.85;49.39;101433.69;5555585;32;33664;-58
2021/12/21 09:58:03;;;;;;;5.68;2.40;;;;;;;3.72;49.95;101427.38;5552687;32;33602;-58
2021/12/21 10:01:05;;;;;;;10.65;2.62;;;;;;;3.71;50.38;101420.47;5566993;32;33860;-58
2021/12/21 10:04:08;;;;;;;4.90;2.58;;;;;;;3.65;49.56;101415.97;5568993;32;33700;-58
2021/12/21 10:07:13;;;;;;;4.90;2.65;;;;;;;3.63;49.90;101414.56;5569249;32;34234;-58
2021/12/21 10:10:18;;;;;;;5.32;2.53;;;;;;;4.04;49.51;101410.72;5563969;32;33362;-58
2021/12/21 10:13:23;;;;;;;5.85;2.65;;;;;;;4.03;49.63;101409.09;5569154;32;33677;-58
2021/12/21 10:16:25;;;;;;;3.97;2.60;;;;;;;4.10;50.43;101407.22;5568844;32;33600;-58
2021/12/21 10:19:28;;;;;;;5.43;2.75;;;;;;;3.98;48.86;101405.25;5559346;32;33595;-58
2021/12/21 10:22:30;;;;;;;6.00;2.72;;;;;;;3.84;51.48;101400.19;5569531;32;34574;-58
2021/12/21 10:25:38;;;;;;;6.35;2.87;;;;;;;3.93;50.11;101390.97;5566168;32;33694;-57
2021/12/21 10:28:51;;;;;;;5.90;2.45;;;;;;;4.14;49.77;101389.84;5560498;32;32124;-58
2021/12/21 10:31:54;;;;;;;6.95;3.05;;;;;;;4.34;50.24;101395.87;5561088;32;33613;-58
2021/12/21 10:35:05;;;;;;;5.93;2.97;;;;;;;4.01;49.67;101385.44;5561887;32;33762;-58
2021/12/21 10:38:08;;;;;;;6.37;3.03;;;;;;;4.19;50.14;101392.69;5565893;32;33626;-58
2021/12/21 10:41:15;;;;;;;6.85;3.22;;;;;;;4.06;50.12;101384.81;5559587;32;33728;-58
2021/12/21 10:44:19;;;;;;;5.40;3.15;;;;;;;4.28;51.17;101386.13;5567049;32;33680;-58
2021/12/21 10:47:21;;;;;;;6.65;3.08;;;;;;;4.29;50.35;101374.47;5562494;32;34297;-58
2021/12/21 10:50:25;;;;;;;6.22;3.20;;;;;;;4.35;51.09;101376.25;5567460;32;34223;-58
2021/12/21 10:53:27;;;;;;;7.00;2.62;;;;;;;4.41;51.01;101371.94;5569558;32;33740;-58
2021/12/21 10:56:30;;;;;;;5.57;3.28;;;;;;;4.22;48.96;101361.22;5566485;32;33744;-58
2021/12/21 10:59:39;;;;;;;6.10;3.00;;;;;;;4.22;50.82;101363.06;5569475;32;33646;-58
2021/12/21 11:02:43;;;;;;;7.30;2.80;;;;;;;4.16;49.33;101356.78;5557138;32;33642;-58
2021/12/21 11:05:46;;;;;;;7.80;3.45;;;;;;;4.07;49.83;101360.69;5565615;32;33851;-58
2021/12/21 11:08:53;;;;;;;5.78;2.78;;;;;;;4.25;49.75;101352.03;5563957;32;33861;-58
2021/12/21 11:11:57;;;;;;;7.22;3.00;;;;;;;4.28;49.90;101350.78;5569124;32;33306;-58
2021/12/21 11:15:01;;;;;;;5.72;3.37;;;;;;;4.47;49.83;101353.31;5569803;32;34258;-58
2021/12/21 11:18:10;;;;;;;6.75;4.32;;;;;;;4.44;49.78;101352.94;5560802;32;34396;-58
2021/12/21 11:21:12;;;;;;;6.15;3.53;;;;;;;4.29;50.28;101347.91;5549999;32;33836;-58
2021/12/21 11:24:18;;;;;;;5.15;3.62;;;;;;;4.26;49.69;101339.56;5559541;31;33778;-58
2021/12/21 11:27:23;;;;;;;5.47;3.53;;;;;;;4.50;49.47;101336.13;5563360;32;33766;-58
2021/12/21 11:30:25;;;;;;;6.65;3.40;;;;;;;4.40;49.64;101341.09;5562941;31;33999;-58
2021/12/21 11:33:34;;;;;;;5.25;2.97;;;;;;;4.51;49.46;101344.91;5557805;31;33764;-58
2021/12/21 11:39:58;;;;;;;7.40;3.20;;;;;;;4.34;48.66;101347.25;5579212;31;33804;-58
2021/12/21 11:43:13;;;;;;;4.93;2.92;;;;;;;4.60;57.67;101335.63;5571984;31;34481;-58
2021/12/21 11:46:25;;;;;;;7.53;3.10;;;;;;;4.86;46.21;101337.25;5561362;31;33681;-58
2021/12/21 11:49:51;;;;;;;4.68;2.80;;;;;;;4.84;46.54;101337.47;5567950;32;33645;-58
2021/12/21 11:52:55;;;;;;;6.18;3.40;;;;;;;5.16;44.61;101338.16;5564467;32;34303;-58
2021/12/21 11:55:58;;;;;;;6.93;3.58;;;;;;;4.93;45.29;101336.19;5560136;32;33676;-58
2021/12/21 11:59:01;;;;;;;7.05;3.40;;;;;;;4.80;47.45;101336.31;5566955;32;33768;-58
2021/12/21 12:02:10;;;;;;;5.45;3.67;;;;;;;5.01;61.17;101336.91;5567288;32;33727;-58
2021/12/21 12:05:34;;;;;;;5.80;3.53;;;;;;;5.08;46.02;101335.81;5569196;32;34369;-58
2021/12/21 12:08:40;;;;;;;6.55;3.90;;;;;;;4.75;45.66;101333.47;5563572;32;33753;-58
2021/12/21 12:11:44;;;;;;;5.90;3.70;;;;;;;4.62;47.23;101326.41;5552779;32;33617;-58
2021/12/21 12:14:58;;;;;;;5.55;3.08;;;;;;;4.13;47.40;101325.34;5568626;32;35258;-58
2021/12/21 12:18:02;;;;;;;6.68;4.20;;;;;;;4.32;49.13;101330.75;5568845;32;33745;-58
2021/12/21 12:21:22;;;;;;;4.93;3.28;;;;;;;4.42;48.56;101323.12;5567645;32;34377;-58
2021/12/21 12:24:32;;;;;;;4.53;2.90;;;;;;;4.39;45.63;101324.34;5554400;32;31857;-58
2021/12/21 12:27:43;;;;;;;5.90;3.00;;;;;;;4.27;47.25;101326.06;5566715;32;34292;-58
2021/12/21 12:30:49;;;;;;;6.30;2.75;;;;;;;4.16;46.73;101324.91;5565937;32;33751;-58
2021/12/21 12:33:51;;;;;;;4.07;2.78;;;;;;;4.22;47.05;101316.09;5560630;32;33619;-58
2021/12/21 12:36:55;;;;;;;4.25;2.83;;;;;;;4.32;46.07;101315.63;5568042;32;33687;-58
2021/12/21 12:40:09;;;;;;;5.72;2.65;;;;;;;4.36;45.29;101326.62;5567460;32;33866;-58
2021/12/21 12:43:20;;;;;;;8.23;3.20;;;;;;;4.44;44.03;101323.72;5567792;32;33780;-58
2021/12/21 12:46:30;;;;;;;8.07;2.70;;;;;;;4.06;45.19;101316.62;5562250;32;33665;-58
2021/12/21 12:49:35;;;;;;;4.72;2.90;;;;;;;4.03;44.84;101321.53;5557666;32;33648;-58
2021/12/21 12:52:57;;;;;;;4.97;2.80;;;;;;;4.15;45.25;101328.63;5557170;31;34202;-58
2021/12/21 12:56:00;;;;;;;4.62;2.70;;;;;;;4.10;46.04;101319.66;5554285;32;33872;-58
2021/12/21 12:59:14;;;;;;;4.50;2.75;;;;;;;4.38;45.38;101321.94;5567625;32;33265;-58
2021/12/21 13:02:16;;;;;;;4.60;3.10;;;;;;;4.55;43.72;101322.19;5568008;32;33578;-58
2021/12/21 13:05:19;;;;;;;5.78;3.10;;;;;;;4.62;44.53;101322.97;5537622;32;33747;-58
2021/12/21 13:08:26;;;;;;;2.85;2.10;;;;;;;4.48;43.30;101330.22;5552501;32;34293;-58
2021/12/21 13:11:31;;;;;;;4.32;1.95;;;;;;;4.40;44.08;101325.16;5553725;32;33685;-58
2021/12/21 13:14:33;;;;;;;3.92;2.55;;;;;;;4.37;42.59;101333.56;5558254;32;33732;-58
2021/12/21 13:17:35;;;;;;;4.25;2.50;;;;;;;4.21;44.13;101330.41;5549834;32;34229;-58
2021/12/21 13:20:38;;;;;;;5.47;2.90;;;;;;;4.16;45.32;101332.88;5564515;31;34330;-58
2021/12/21 13:23:40;;;;;;;4.75;2.90;;;;;;;4.27;45.26;101330.56;5574286;31;33978;-58
2021/12/21 13:26:51;;;;;;;4.30;2.90;;;;;;;4.26;45.95;101336.91;5568401;32;34416;-58
2021/12/21 13:29:54;;;;;;;5.87;3.05;;;;;;;4.14;46.75;101344.72;5553821;32;34354;-58
2021/12/21 13:32:57;;;;;;;5.40;2.30;;;;;;;4.06;46.29;101345.81;5565432;32;33806;-58
2021/12/21 13:36:05;;;;;;;3.90;2.42;;;;;;;4.05;48.10;101336.22;5555508;32;34280;-58
2021/12/21 13:39:35;;;;;;;5.72;2.87;;;;;;;4.17;45.61;101334.53;5569846;32;34365;-58
2021/12/21 13:42:37;;;;;;;4.12;2.65;;;;;;;4.04;45.60;101331.97;5568164;32;34222;-58
2021/12/21 13:45:41;;;;;;;4.75;2.97;;;;;;;4.04;46.08;101328.47;5557380;32;33681;-58
2021/12/21 13:48:51;;;;;;;5.10;2.80;;;;;;;3.80;47.98;101325.53;5567270;32;33648;-58
2021/12/21 13:51:59;;;;;;;8.05;2.83;;;;;;;3.78;46.16;101332.91;5564138;32;32411;-58
2021/12/21 13:55:07;;;;;;;4.05;2.78;;;;;;;3.68;46.42;101325.41;5569243;32;34358;-58
2021/12/21 13:58:12;;;;;;;5.22;2.83;;;;;;;3.75;46.56;101325.37;5568128;32;33595;-58
2021/12/21 14:01:20;;;;;;;7.10;3.17;;;;;;;3.99;47.19;101329.13;5570205;32;34227;-58
2021/12/21 14:04:27;;;;;;;5.75;2.87;;;;;;;3.99;46.24;101331.78;5532988;32;33311;-58
2021/12/21 14:07:37;;;;;;;5.55;3.92;;;;;;;4.10;47.15;101325.78;5542656;32;33714;-58
2021/12/21 14:10:48;;;;;;;5.57;3.72;;;;;;;3.91;47.33;101334.69;5549248;32;34327;-58
2021/12/21 14:13:53;;;;;;;6.45;3.70;;;;;;;3.89;48.05;101329.56;5543541;32;34311;-58
2021/12/21 14:16:55;;;;;;;15.40;4.22;;;;;;;3.99;48.17;101323.81;5545924;32;34365;-58
2021/12/21 14:20:00;;;;;;;13.60;4.22;;;;;;;3.99;49.48;101334.44;5535285;32;34561;-58
2021/12/21 14:23:02;;;;;;;7.62;3.90;;;;;;;4.14;49.14;101334.13;5531438;32;33702;-58
2021/12/21 14:26:18;;;;;;;6.07;3.97;;;;;;;4.13;48.69;101332.50;5531101;32;33692;-58
2021/12/21 14:29:25;;;;;;;34.72;5.45;;;;;;;3.97;48.95;101334.66;5541228;32;33869;-58
2021/12/21 14:32:42;;;;;;;6.37;4.07;;;;;;;4.04;49.30;101326.66;5538366;32;33633;-58
2021/12/21 14:35:44;;;;;;;;;;;;;;;4.16;50.03;101340.03;5531505;32;34357;-58
2021/12/21 14:39:04;;;;;;;6.18;3.58;;;;;;;4.31;50.01;101334.44;5534393;32;34624;-58
2021/12/21 14:42:19;;;;;;;6.75;3.95;;;;;;;4.35;50.59;101335.63;5538783;32;33748;-58
2021/12/21 14:45:26;;;;;;;12.13;4.28;;;;;;;4.29;49.69;101347.09;5545030;32;33648;-58
2021/12/21 14:48:28;;;;;;;9.35;4.82;;;;;;;4.46;49.83;101342.88;5536370;32;34113;-58
2021/12/21 14:51:38;;;;;;;8.90;4.70;;;;;;;4.58;49.66;101333.22;5539335;32;33672;-58
2021/12/21 14:54:52;;;;;;;5.70;4.03;;;;;;;4.37;50.75;101342.37;5542225;32;34421;-58
2021/12/21 14:58:00;;;;;;;10.40;4.55;;;;;;;4.23;50.09;101343.47;5539617;32;33300;-58
2021/12/21 15:01:04;;;;;;;7.32;4.32;;;;;;;4.20;50.28;101357.16;5560321;32;34056;-58
2021/12/21 15:04:21;;;;;;;6.05;4.12;;;;;;;4.45;49.71;101351.91;5569240;32;33805;-58
2021/12/21 15:07:24;;;;;;;7.47;4.22;;;;;;;4.36;49.38;101348.69;5565470;32;33615;-58
2021/12/21 15:10:28;;;;;;;8.25;4.57;;;;;;;4.21;49.10;101349.00;5565371;32;34066;-58
2021/12/21 15:13:31;;;;;;;8.05;4.40;;;;;;;4.24;49.19;101351.22;5569756;32;34404;-58
2021/12/21 15:16:33;;;;;;;8.05;4.28;;;;;;;4.27;49.98;101354.47;5569316;32;34319;-58
2021/12/21 15:19:35;;;;;;;8.88;4.75;;;;;;;4.27;51.40;101362.41;5564046;32;33644;-58
2021/12/21 15:22:39;;;;;;;8.15;5.05;;;;;;;4.45;49.35;101363.31;5565077;32;32828;-58
2021/12/21 15:25:41;;;;;;;10.85;4.47;;;;;;;4.32;49.67;101367.91;5555681;32;33633;-58
2021/12/21 15:28:43;;;;;;;8.23;5.30;;;;;;;4.28;60.66;101370.19;5562423;32;33663;-58
2021/12/21 15:31:47;;;;;;;8.02;4.80;;;;;;;4.37;49.86;101374.22;5562402;32;33756;-58
2021/12/21 15:34:50;;;;;;;6.68;4.53;;;;;;;4.31;50.95;101366.28;5549429;32;34470;-58
2021/12/21 15:37:52;;;;;;;6.75;4.50;;;;;;;4.37;55.39;101368.06;5566923;32;34435;-58
2021/12/21 15:40:54;;;;;;;7.87;4.60;;;;;;;4.32;54.11;101366.06;5569167;32;34261;-58
2021/12/21 15:43:59;;;;;;;9.07;4.57;;;;;;;4.48;50.97;101378.00;5567197;32;33724;-58
2021/12/21 15:47:01;;;;;;;8.15;5.05;;;;;;;4.43;49.79;101373.34;5568096;32;33734;-58
2021/12/21 15:50:05;;;;;;;11.40;4.47;;;;;;;4.27;50.18;101376.50;5568886;31;34403;-58
2021/12/21 15:53:08;;;;;;;8.45;5.30;;;;;;;4.29;50.27;101382.41;5560777;32;34013;-57
2021/12/21 15:56:15;;;;;;;8.27;4.68;;;;;;;4.34;50.45;101379.94;5568893;32;33863;-58
2021/12/21 15:59:17;;;;;;;9.05;4.87;;;;;;;4.30;51.32;101378.72;5568821;32;33664;-58
2021/12/21 16:02:19;;;;;;;10.57;5.68;;;;;;;4.22;51.13;101377.16;5569372;32;34403;-58
2021/12/21 16:05:22;;;;;;;7.55;4.95;;;;;;;4.29;50.00;101376.31;5569312;32;33768;-58
2021/12/21 16:08:24;;;;;;;7.32;5.28;;;;;;;4.29;50.15;101381.63;5568026;32;33756;-58
2021/12/21 16:11:27;;;;;;;8.00;5.62;;;;;;;4.24;50.61;101377.75;5569574;32;34368;-58
2021/12/21 16:14:29;;;;;;;7.95;4.65;;;;;;;4.16;51.02;101371.88;5569078;32;33714;-58
2021/12/21 16:17:32;;;;;;;8.13;5.05;;;;;;;4.36;52.36;101366.44;5568474;32;34415;-58
2021/12/21 16:20:35;;;;;;;7.85;4.75;;;;;;;4.17;50.60;101361.06;5567671;32;33840;-58
2021/12/21 16:23:37;;;;;;;10.02;5.15;;;;;;;4.21;56.92;101374.72;5569291;32;33642;-58
2021/12/21 16:26:39;;;;;;;10.15;5.68;;;;;;;4.21;51.06;101369.41;5568586;32;33632;-58
2021/12/21 16:29:42;;;;;;;9.27;5.60;;;;;;;4.06;52.06;101375.00;5566792;32;33715;-58
2021/12/21 16:32:44;;;;;;;10.30;5.00;;;;;;;4.13;50.93;101362.50;5567441;32;33996;-58
2021/12/21 16:35:48;;;;;;;9.63;5.30;;;;;;;4.19;50.12;101369.63;5568948;32;34394;-58
2021/12/21 16:38:52;;;;;;;8.52;4.43;;;;;;;4.11;52.15;101377.03;5568647;32;33670;-58
